Time;durP1;ratioP1;P1;durP2;ratioP2;P2;SDS_P1;SDS_P2;PMS_P1;PMS_P2;Temp;Humidity;BMP_temperature;BMP_pressure;BME280_temperature;BME280_humidity;BME280_pressure;Samples;Min_cycle;Max_cycle;Signal;HPM_P1;HPM_P2
2022/11/21 00:00:47;;;;;;;0.90;0.57;;;4.70;99.90;;;;;;4976652;28;20455;-85
2022/11/21 00:03:14;;;;;;;0.70;0.50;;;4.60;99.90;;;;;;4986181;28;20467;-85
2022/11/21 00:05:42;;;;;;;0.70;0.40;;;4.70;99.90;;;;;;4979659;28;20533;-85
2022/11/21 00:08:10;;;;;;;0.60;0.60;;;4.70;99.90;;;;;;4984922;28;20455;-85
2022/11/21 00:10:38;;;;;;;1.33;0.53;;;4.70;99.90;;;;;;4987281;28;20518;-84
2022/11/21 00:13:06;;;;;;;1.13;0.40;;;4.70;99.90;;;;;;4984380;28;20475;-85
2022/11/21 00:15:35;;;;;;;0.93;0.50;;;4.80;99.90;;;;;;4986794;28;20446;-84
2022/11/21 00:18:04;;;;;;;0.53;0.50;;;4.70;99.90;;;;;;4988454;28;20473;-86
2022/11/21 00:20:31;;;;;;;0.73;0.47;;;4.70;99.90;;;;;;4981050;28;20495;-85
2022/11/21 00:22:59;;;;;;;0.90;0.60;;;4.70;99.90;;;;;;4979177;28;20495;-85
2022/11/21 00:25:26;;;;;;;0.47;0.33;;;4.70;99.90;;;;;;4985927;28;20468;-85
2022/11/21 00:27:53;;;;;;;1.60;0.40;;;4.70;99.90;;;;;;4993891;28;20530;-85
2022/11/21 00:30:20;;;;;;;0.50;0.50;;;4.70;99.90;;;;;;4990719;28;20460;-84
2022/11/21 00:32:47;;;;;;;0.77;0.50;;;4.70;99.90;;;;;;4987527;28;20522;-86
2022/11/21 00:35:16;;;;;;;2.53;1.43;;;4.70;99.90;;;;;;4988155;28;20459;-86
2022/11/21 00:37:43;;;;;;;0.73;0.60;;;4.60;99.90;;;;;;4986442;28;20535;-85
2022/11/21 00:40:11;;;;;;;1.70;0.73;;;4.50;99.90;;;;;;4977390;28;20867;-84
2022/11/21 00:42:38;;;;;;;3.70;0.70;;;4.50;99.90;;;;;;4975653;28;20503;-84
2022/11/21 00:45:07;;;;;;;2.70;0.50;;;4.50;99.90;;;;;;4985950;28;20490;-85
2022/11/21 00:47:35;;;;;;;1.90;0.60;;;4.50;99.90;;;;;;4983372;28;20490;-84
2022/11/21 00:50:03;;;;;;;1.33;0.50;;;4.50;99.90;;;;;;4989221;28;20978;-85
2022/11/21 00:52:32;;;;;;;0.50;0.40;;;4.50;99.90;;;;;;4986478;28;20498;-85
2022/11/21 00:54:59;;;;;;;0.80;0.50;;;4.60;99.90;;;;;;4983381;28;20989;-85
2022/11/21 00:57:26;;;;;;;2.00;0.50;;;4.60;99.90;;;;;;4988440;28;20525;-85
2022/11/21 00:59:54;;;;;;;0.80;0.43;;;4.60;99.90;;;;;;4985758;28;20483;-85
2022/11/21 01:02:21;;;;;;;0.70;0.50;;;4.80;99.90;;;;;;5002928;28;20451;-85
2022/11/21 01:04:49;;;;;;;1.30;0.37;;;5.00;99.90;;;;;;5001968;28;20458;-85
2022/11/21 01:07:16;;;;;;;0.40;0.30;;;5.20;99.90;;;;;;4993081;28;20494;-85
2022/11/21 01:09:45;;;;;;;0.50;0.40;;;5.30;99.90;;;;;;4984464;28;20514;-85
2022/11/21 01:12:12;;;;;;;0.70;0.50;;;5.30;99.90;;;;;;4981401;28;20510;-85
2022/11/21 01:14:40;;;;;;;0.70;0.40;;;5.20;99.90;;;;;;4989000;28;20467;-84
2022/11/21 01:17:08;;;;;;;0.50;0.40;;;5.20;99.90;;;;;;4982058;28;20938;-84
2022/11/21 01:19:35;;;;;;;1.20;0.43;;;5.20;99.90;;;;;;4987747;28;20466;-85
2022/11/21 01:22:03;;;;;;;1.27;0.47;;;5.10;99.90;;;;;;4987598;28;20546;-84
2022/11/21 01:24:32;;;;;;;0.60;0.50;;;5.10;99.90;;;;;;4984322;28;20959;-84
2022/11/21 01:27:00;;;;;;;1.27;0.50;;;5.10;99.90;;;;;;4989100;28;20495;-85
2022/11/21 01:29:28;;;;;;;2.57;0.93;;;5.00;99.90;;;;;;4977832;28;21054;-84
2022/11/21 01:31:55;;;;;;;1.07;0.57;;;5.00;99.90;;;;;;4986190;28;20564;-84
2022/11/21 01:34:22;;;;;;;0.80;0.50;;;5.00;99.90;;;;;;4987672;28;20586;-84
2022/11/21 01:36:49;;;;;;;0.60;0.53;;;5.00;99.90;;;;;;4977872;28;20491;-85
2022/11/21 01:39:16;;;;;;;4.50;0.60;;;4.90;99.90;;;;;;4987038;28;20491;-85
2022/11/21 01:41:45;;;;;;;1.53;0.50;;;4.90;99.90;;;;;;4990876;28;20490;-85
2022/11/21 01:44:19;;;;;;;0.60;0.53;;;4.80;99.90;;;;;;4985798;28;20463;-85
2022/11/21 01:46:46;;;;;;;1.03;0.50;;;4.80;99.90;;;;;;4989198;28;20487;-85
2022/11/21 01:49:18;;;;;;;1.13;0.60;;;4.80;99.90;;;;;;4985013;28;20509;-85
2022/11/21 01:51:49;;;;;;;0.90;0.63;;;4.80;99.90;;;;;;4982401;28;20459;-85
2022/11/21 01:54:22;;;;;;;0.60;0.50;;;4.80;99.90;;;;;;4990147;28;20464;-85
2022/11/21 01:56:53;;;;;;;0.77;0.50;;;4.80;99.90;;;;;;4989608;28;20490;-85
2022/11/21 01:59:30;;;;;;;0.67;0.67;;;4.80;99.90;;;;;;4981324;28;21021;-84
2022/11/21 02:01:59;;;;;;;1.10;0.70;;;4.70;99.90;;;;;;4987281;28;20910;-85
2022/11/21 02:04:30;;;;;;;0.60;0.40;;;4.70;99.90;;;;;;4990104;28;20943;-85
2022/11/21 02:06:58;;;;;;;0.60;0.60;;;4.70;99.90;;;;;;4992089;28;20483;-84
2022/11/21 02:09:26;;;;;;;0.50;0.50;;;4.70;99.90;;;;;;5012260;28;20459;-85
2022/11/21 02:11:58;;;;;;;0.90;0.67;;;4.60;99.90;;;;;;5004711;28;20478;-86
2022/11/21 02:14:28;;;;;;;0.80;0.80;;;4.60;99.90;;;;;;4988908;28;20541;-84
2022/11/21 02:17:01;;;;;;;0.70;0.60;;;4.50;99.90;;;;;;4993173;28;20731;-85
2022/11/21 02:19:36;;;;;;;1.10;0.70;;;4.50;99.90;;;;;;4992360;28;20459;-85
2022/11/21 02:22:10;;;;;;;1.07;0.97;;;4.50;99.90;;;;;;4990774;28;20496;-85
2022/11/21 02:24:43;;;;;;;1.10;0.70;;;4.50;99.90;;;;;;4995986;28;20460;-84
2022/11/21 02:27:12;;;;;;;0.70;0.70;;;4.50;99.90;;;;;;4989058;28;20587;-85
2022/11/21 02:29:40;;;;;;;1.13;0.70;;;4.60;99.90;;;;;;4990032;28;20538;-85
2022/11/21 02:32:07;;;;;;;0.93;0.70;;;4.50;99.90;;;;;;4988484;28;21017;-85
2022/11/21 02:34:34;;;;;;;0.93;0.73;;;4.50;99.90;;;;;;4982569;28;20507;-85
2022/11/21 02:37:02;;;;;;;1.53;1.17;;;4.40;99.90;;;;;;4986039;28;20518;-85
2022/11/21 02:39:32;;;;;;;0.90;0.90;;;4.40;99.90;;;;;;4983745;28;20526;-85
2022/11/21 02:42:04;;;;;;;0.83;0.60;;;4.30;99.90;;;;;;4989196;28;20456;-84
2022/11/21 02:44:40;;;;;;;0.90;0.70;;;4.30;99.90;;;;;;4985345;28;20514;-84
2022/11/21 02:47:06;;;;;;;0.80;0.67;;;4.30;99.90;;;;;;4986188;28;20490;-85
2022/11/21 02:49:40;;;;;;;1.57;0.90;;;4.30;99.90;;;;;;4988779;28;20520;-85
2022/11/21 02:52:07;;;;;;;2.20;1.10;;;4.20;99.90;;;;;;4991680;28;20463;-85
2022/11/21 02:54:34;;;;;;;1.40;1.10;;;4.20;99.90;;;;;;4991124;28;20464;-85
2022/11/21 02:57:02;;;;;;;0.90;0.90;;;4.20;99.90;;;;;;4993851;28;20768;-85
2022/11/21 02:59:30;;;;;;;1.23;0.80;;;4.20;99.90;;;;;;4996978;28;20865;-85
2022/11/21 03:01:59;;;;;;;1.20;1.10;;;4.20;99.90;;;;;;5006679;28;20470;-85
2022/11/21 03:04:27;;;;;;;1.07;0.97;;;4.20;99.90;;;;;;5013547;28;20525;-86
2022/11/21 03:06:55;;;;;;;1.20;0.80;;;4.20;99.90;;;;;;5008756;28;20507;-85
2022/11/21 03:09:23;;;;;;;1.00;0.90;;;4.20;99.90;;;;;;4996762;28;20471;-85
2022/11/21 03:11:50;;;;;;;0.93;0.93;;;4.20;99.90;;;;;;4987406;28;20510;-85
2022/11/21 03:14:17;;;;;;;1.10;1.00;;;4.20;99.90;;;;;;4989722;28;20557;-85
2022/11/21 03:16:44;;;;;;;0.90;0.73;;;4.20;99.90;;;;;;4987291;28;20977;-85
2022/11/21 03:19:12;;;;;;;0.60;0.60;;;4.20;99.90;;;;;;4990554;28;20460;-84
2022/11/21 03:21:40;;;;;;;0.80;0.60;;;4.20;99.90;;;;;;4985696;28;20491;-85
2022/11/21 03:24:07;;;;;;;1.37;0.80;;;4.20;99.90;;;;;;4980431;28;20464;-85
2022/11/21 03:26:34;;;;;;;0.90;0.60;;;4.20;99.90;;;;;;4991042;28;20471;-85
2022/11/21 03:29:01;;;;;;;0.73;0.70;;;4.20;99.90;;;;;;4981853;28;20451;-86
2022/11/21 03:31:28;;;;;;;1.93;0.60;;;4.10;99.90;;;;;;4985118;28;20515;-84
2022/11/21 03:33:55;;;;;;;0.60;0.40;;;4.20;99.90;;;;;;4986215;28;20915;-85
2022/11/21 03:36:24;;;;;;;0.80;0.40;;;4.20;99.90;;;;;;4989443;28;20459;-85
2022/11/21 03:38:51;;;;;;;0.80;0.80;;;4.20;99.90;;;;;;5007940;28;20864;-84
2022/11/21 03:41:29;;;;;;;0.50;0.37;;;4.20;99.90;;;;;;4983210;28;20472;-85
2022/11/21 03:43:57;;;;;;;0.50;0.30;;;4.20;99.90;;;;;;4988965;28;20486;-84
2022/11/21 03:46:24;;;;;;;0.60;0.40;;;4.20;99.90;;;;;;4992301;28;20490;-85
2022/11/21 03:48:51;;;;;;;0.40;0.30;;;4.30;99.90;;;;;;4981592;28;20514;-85
2022/11/21 03:51:18;;;;;;;0.40;0.33;;;4.40;99.90;;;;;;4987411;28;20448;-85
2022/11/21 03:53:47;;;;;;;1.03;0.30;;;4.40;99.90;;;;;;4993135;28;20447;-86
2022/11/21 03:56:14;;;;;;;0.50;0.30;;;4.40;99.90;;;;;;5000072;28;20466;-84
2022/11/21 03:58:41;;;;;;;0.43;0.30;;;4.40;99.90;;;;;;5002383;28;20506;-85
2022/11/21 04:01:08;;;;;;;0.40;0.30;;;4.50;99.90;;;;;;4994110;28;20463;-85
2022/11/21 04:03:35;;;;;;;0.40;0.37;;;4.50;99.90;;;;;;4997029;28;20897;-85
2022/11/21 04:06:02;;;;;;;0.77;0.30;;;4.60;99.90;;;;;;4993260;28;20464;-84
2022/11/21 04:08:29;;;;;;;0.77;0.40;;;4.60;99.90;;;;;;4997876;28;20490;-85
2022/11/21 04:10:58;;;;;;;0.50;0.30;;;4.60;99.90;;;;;;4991267;28;20459;-85
2022/11/21 04:13:25;;;;;;;0.40;0.20;;;4.70;99.90;;;;;;5001935;28;20513;-84
2022/11/21 04:15:52;;;;;;;0.57;0.20;;;4.70;99.90;;;;;;4990834;28;20471;-85
2022/11/21 04:18:19;;;;;;;0.40;0.30;;;4.80;99.90;;;;;;5000391;28;20451;-84
2022/11/21 04:20:46;;;;;;;4.97;0.40;;;4.90;99.90;;;;;;4990850;28;20734;-84
2022/11/21 04:23:13;;;;;;;0.40;0.30;;;5.00;99.90;;;;;;4990451;28;20483;-85
2022/11/21 04:25:40;;;;;;;0.40;0.30;;;5.10;99.90;;;;;;4992393;28;20458;-85
2022/11/21 04:28:13;;;;;;;0.40;0.30;;;5.10;99.90;;;;;;4989256;28;21020;-84
2022/11/21 04:30:40;;;;;;;0.30;0.20;;;5.10;99.90;;;;;;4989622;28;21000;-84
2022/11/21 04:33:07;;;;;;;1.07;0.30;;;5.10;99.90;;;;;;4981549;28;20471;-84
2022/11/21 04:35:34;;;;;;;0.93;0.37;;;5.10;99.90;;;;;;4978309;28;20789;-84
2022/11/21 04:38:01;;;;;;;0.60;0.30;;;5.10;99.90;;;;;;4984162;28;20521;-85
2022/11/21 04:40:28;;;;;;;0.50;0.40;;;5.10;99.90;;;;;;4986435;28;20946;-84
2022/11/21 04:42:55;;;;;;;1.40;0.40;;;5.10;99.90;;;;;;4984152;28;20855;-85
2022/11/21 04:45:24;;;;;;;1.27;0.40;;;5.10;99.90;;;;;;4989506;28;20463;-85
2022/11/21 04:47:51;;;;;;;1.63;0.70;;;4.90;99.90;;;;;;4987779;28;20494;-84
2022/11/21 04:50:19;;;;;;;2.30;0.50;;;4.80;99.90;;;;;;4977587;28;20522;-84
2022/11/21 04:52:50;;;;;;;0.47;0.30;;;4.80;99.90;;;;;;4987743;28;21158;-85
2022/11/21 04:55:17;;;;;;;0.70;0.40;;;4.70;99.90;;;;;;4988963;28;20505;-85
2022/11/21 04:57:44;;;;;;;0.40;0.30;;;4.70;99.90;;;;;;4993789;28;20467;-84
2022/11/21 05:00:12;;;;;;;1.13;0.50;;;4.60;99.90;;;;;;5002975;28;20462;-84
2022/11/21 05:02:41;;;;;;;0.40;0.30;;;4.70;99.90;;;;;;4987584;28;20455;-85
2022/11/21 05:05:08;;;;;;;0.40;0.30;;;4.70;99.90;;;;;;5022614;28;20888;-86
2022/11/21 05:07:36;;;;;;;1.43;0.30;;;4.70;99.90;;;;;;5003768;28;20479;-85
2022/11/21 05:10:03;;;;;;;0.50;0.30;;;4.80;99.90;;;;;;4997544;28;20992;-85
2022/11/21 05:15:14;;;;;;;2.00;0.30;;;4.80;99.90;;;;;;4984147;28;22153;-84
2022/11/21 05:17:43;;;;;;;0.63;0.40;;;4.80;99.90;;;;;;4990864;28;20467;-84
2022/11/21 05:20:11;;;;;;;0.37;0.30;;;4.80;99.90;;;;;;4993271;28;21076;-85
2022/11/21 05:22:38;;;;;;;1.37;0.30;;;4.80;99.90;;;;;;4987677;28;20499;-85
2022/11/21 05:25:05;;;;;;;11.10;1.00;;;4.80;99.90;;;;;;4990238;28;20547;-84
2022/11/21 05:27:32;;;;;;;1.60;0.40;;;4.70;99.90;;;;;;4990421;28;20495;-85
2022/11/21 05:29:59;;;;;;;0.40;0.30;;;4.70;99.90;;;;;;4985964;28;20848;-85
2022/11/21 05:32:26;;;;;;;0.40;0.30;;;4.70;99.90;;;;;;4990958;28;20467;-85
2022/11/21 05:34:55;;;;;;;0.40;0.20;;;4.60;99.90;;;;;;4988979;28;20497;-85
2022/11/21 05:37:22;;;;;;;2.70;0.30;;;4.60;99.90;;;;;;5005348;28;20470;-84
2022/11/21 05:39:49;;;;;;;0.40;0.30;;;4.50;99.90;;;;;;4992606;28;21104;-85
2022/11/21 05:43:44;;;;;;;1.00;0.30;;;4.50;99.90;;;;;;5017259;28;20502;-88
2022/11/21 05:45:01;;;;;;;0.57;0.43;;;4.50;99.90;;;;;;5020720;28;20449;-85
2022/11/21 05:47:28;;;;;;;0.50;0.40;;;4.50;99.90;;;;;;5027383;28;20463;-86
2022/11/21 05:49:57;;;;;;;0.60;0.30;;;4.60;99.90;;;;;;5014746;28;20992;-86
2022/11/21 05:52:24;;;;;;;1.37;0.73;;;4.70;99.90;;;;;;5018309;28;20463;-84
2022/11/21 05:54:51;;;;;;;1.50;1.03;;;4.70;99.90;;;;;;5007322;28;20454;-84
2022/11/21 05:57:17;;;;;;;2.10;0.80;;;4.70;99.90;;;;;;5006147;28;20447;-85
2022/11/21 05:59:44;;;;;;;0.83;0.50;;;4.70;99.90;;;;;;5002549;28;20466;-85
2022/11/21 06:04:57;;;;;;;1.13;0.50;;;4.70;99.90;;;;;;5004681;28;20545;-86
2022/11/21 06:07:24;;;;;;;1.27;0.40;;;4.70;99.90;;;;;;4997903;28;20486;-85
2022/11/21 06:09:51;;;;;;;1.10;0.70;;;4.80;99.90;;;;;;4992001;28;20468;-86
2022/11/21 06:12:18;;;;;;;0.50;0.40;;;4.80;99.90;;;;;;4991300;28;20958;-85
2022/11/21 06:14:45;;;;;;;0.77;0.60;;;4.80;99.90;;;;;;4997911;28;20461;-85
2022/11/21 06:17:12;;;;;;;0.43;0.30;;;4.80;99.90;;;;;;4996481;28;20471;-85
2022/11/21 06:19:39;;;;;;;1.40;0.37;;;4.80;99.90;;;;;;4998454;28;20493;-86
2022/11/21 06:22:07;;;;;;;0.40;0.37;;;4.80;99.90;;;;;;4990578;28;20490;-85
2022/11/21 06:24:34;;;;;;;0.50;0.40;;;4.80;99.90;;;;;;4981272;28;20514;-85
2022/11/21 06:27:01;;;;;;;0.60;0.60;;;4.80;99.90;;;;;;4989726;28;20505;-85
2022/11/21 06:29:28;;;;;;;0.70;0.30;;;4.80;99.90;;;;;;4988381;28;20487;-85
2022/11/21 06:31:55;;;;;;;0.53;0.40;;;4.90;99.90;;;;;;4991848;28;20467;-85
2022/11/21 06:34:22;;;;;;;0.50;0.33;;;4.90;99.90;;;;;;4990176;28;20478;-85
2022/11/21 06:36:49;;;;;;;0.50;0.40;;;4.90;99.90;;;;;;4985431;28;20946;-85
2022/11/21 06:39:17;;;;;;;1.27;0.60;;;5.00;99.90;;;;;;4985398;28;20905;-85
2022/11/21 06:41:49;;;;;;;3.77;0.60;;;5.10;99.90;;;;;;4974066;28;20457;-85
2022/11/21 06:44:16;;;;;;;0.70;0.40;;;5.10;99.90;;;;;;4978196;28;20477;-84
2022/11/21 06:46:43;;;;;;;0.60;0.43;;;5.10;99.90;;;;;;4985205;28;20974;-84
2022/11/21 06:49:10;;;;;;;0.50;0.40;;;5.20;99.90;;;;;;4984552;28;20534;-85
2022/11/21 06:51:37;;;;;;;0.63;0.40;;;5.20;99.90;;;;;;4983700;28;20476;-85
2022/11/21 06:54:05;;;;;;;0.40;0.30;;;5.30;99.90;;;;;;4982599;28;20467;-85
2022/11/21 06:56:33;;;;;;;1.23;0.30;;;5.30;99.90;;;;;;4983719;28;20510;-83
2022/11/21 06:59:00;;;;;;;1.47;0.30;;;5.30;99.90;;;;;;4985733;28;20490;-85
2022/11/21 07:01:28;;;;;;;1.57;0.50;;;5.40;99.90;;;;;;4991524;28;20473;-84
2022/11/21 07:03:55;;;;;;;1.60;0.30;;;5.40;99.90;;;;;;4997739;28;20542;-84
2022/11/21 07:06:22;;;;;;;1.40;1.23;;;5.50;99.90;;;;;;5017950;28;20450;-85
2022/11/21 07:08:53;;;;;;;1.53;1.23;;;5.50;99.90;;;;;;5021716;28;20482;-84
2022/11/21 07:11:20;;;;;;;11.17;7.10;;;5.60;99.90;;;;;;5003973;28;20478;-85
2022/11/21 07:13:47;;;;;;;7.60;5.33;;;5.60;99.90;;;;;;4983827;28;20517;-84
2022/11/21 07:16:14;;;;;;;4.30;1.73;;;5.70;99.90;;;;;;4990051;28;20542;-85
2022/11/21 07:18:43;;;;;;;1.43;1.27;;;5.70;99.90;;;;;;4987689;28;20471;-85
2022/11/21 07:21:10;;;;;;;3.73;2.20;;;5.70;99.90;;;;;;4987308;28;20493;-85
2022/11/21 07:23:37;;;;;;;2.40;0.60;;;5.70;99.90;;;;;;4978448;28;20499;-84
2022/11/21 07:26:06;;;;;;;1.20;0.70;;;5.60;99.90;;;;;;4984011;28;20470;-84
2022/11/21 07:28:34;;;;;;;1.70;1.33;;;5.60;99.90;;;;;;4988650;28;20491;-85
2022/11/21 07:31:03;;;;;;;1.43;0.83;;;5.60;99.90;;;;;;4987523;28;20459;-85
2022/11/21 07:33:30;;;;;;;4.40;3.03;;;5.50;99.90;;;;;;4990848;28;20990;-85
2022/11/21 07:35:58;;;;;;;1.80;0.60;;;5.50;99.90;;;;;;4985950;28;20533;-88
2022/11/21 07:38:26;;;;;;;2.60;2.40;;;5.50;99.90;;;;;;4981379;28;20470;-87
2022/11/21 07:40:55;;;;;;;1.43;0.80;;;5.50;99.90;;;;;;4987723;28;20465;-86
2022/11/21 07:43:23;;;;;;;2.13;1.43;;;5.50;99.90;;;;;;4981492;28;20462;-85
2022/11/21 07:45:50;;;;;;;1.93;0.53;;;5.60;99.90;;;;;;4990190;28;20558;-85
2022/11/21 07:48:18;;;;;;;0.80;0.60;;;5.70;99.90;;;;;;4984849;28;20527;-84
2022/11/21 07:50:45;;;;;;;2.40;0.83;;;5.70;99.90;;;;;;4980861;28;21033;-87
2022/11/21 07:53:13;;;;;;;2.30;0.80;;;5.70;99.90;;;;;;4983914;28;20559;-87
2022/11/21 07:55:40;;;;;;;1.17;1.07;;;5.80;99.90;;;;;;4984687;28;20842;-86
2022/11/21 07:58:09;;;;;;;1.60;1.07;;;5.80;99.90;;;;;;4994304;28;20974;-86
2022/11/21 08:00:37;;;;;;;2.40;1.10;;;5.90;99.90;;;;;;4987516;28;20466;-88
2022/11/21 08:03:07;;;;;;;1.00;0.50;;;6.00;99.90;;;;;;4987366;28;20958;-88
2022/11/21 08:05:38;;;;;;;1.10;0.87;;;6.00;99.90;;;;;;4972986;28;20496;-83
2022/11/21 08:08:05;;;;;;;0.80;0.50;;;6.10;99.90;;;;;;4980616;28;20508;-85
2022/11/21 08:10:32;;;;;;;0.43;0.40;;;6.20;99.90;;;;;;4983754;28;20549;-85
2022/11/21 08:12:59;;;;;;;0.50;0.37;;;6.30;99.90;;;;;;4977663;28;20973;-85
2022/11/21 08:15:26;;;;;;;0.83;0.30;;;6.20;99.90;;;;;;4976974;28;20457;-86
2022/11/21 08:17:53;;;;;;;0.80;0.57;;;6.20;99.90;;;;;;4977100;28;20464;-86
2022/11/21 08:20:20;;;;;;;0.60;0.43;;;6.20;99.90;;;;;;4978957;28;20489;-86
2022/11/21 08:22:49;;;;;;;0.43;0.30;;;6.20;99.90;;;;;;4983278;28;20636;-88
2022/11/21 08:25:16;;;;;;;0.50;0.43;;;6.30;99.90;;;;;;4986026;28;20472;-87
2022/11/21 08:27:43;;;;;;;0.50;0.40;;;6.40;99.90;;;;;;4991684;28;20463;-86
2022/11/21 08:30:11;;;;;;;1.03;0.50;;;6.40;99.90;;;;;;4980948;28;20460;-84
2022/11/21 08:32:38;;;;;;;1.17;0.50;;;6.40;99.90;;;;;;4983974;28;20969;-86
2022/11/21 08:35:06;;;;;;;0.60;0.40;;;6.30;99.90;;;;;;4991501;28;20459;-86
2022/11/21 08:37:33;;;;;;;1.07;0.50;;;6.10;99.90;;;;;;4993924;28;21205;-84
2022/11/21 08:40:02;;;;;;;0.47;0.30;;;6.00;99.90;;;;;;4978014;28;21409;-83
2022/11/21 08:42:29;;;;;;;0.53;0.40;;;5.90;99.90;;;;;;4981592;28;20549;-84
2022/11/21 08:44:56;;;;;;;3.50;0.63;;;5.80;99.90;;;;;;4985043;28;20505;-84
2022/11/21 08:47:23;;;;;;;0.63;0.50;;;5.70;99.90;;;;;;4978212;28;20472;-86
2022/11/21 08:49:50;;;;;;;0.40;0.30;;;5.50;99.90;;;;;;4986324;28;20494;-87
2022/11/21 08:52:17;;;;;;;1.17;0.30;;;5.20;99.90;;;;;;4988629;28;20510;-86
2022/11/21 08:54:44;;;;;;;0.50;0.40;;;5.10;99.90;;;;;;4979291;28;20478;-87
2022/11/21 08:57:13;;;;;;;0.60;0.50;;;4.90;99.90;;;;;;4970249;28;21240;-86
2022/11/21 08:59:40;;;;;;;0.47;0.30;;;4.80;99.90;;;;;;4970564;28;20459;-87
2022/11/21 09:02:09;;;;;;;0.40;0.30;;;4.70;99.90;;;;;;4975092;28;20522;-86
2022/11/21 09:04:37;;;;;;;0.40;0.30;;;4.60;99.90;;;;;;4994123;28;20448;-87
2022/11/21 09:07:04;;;;;;;0.40;0.30;;;4.60;99.90;;;;;;5012686;28;20459;-87
2022/11/21 09:09:31;;;;;;;5.37;0.40;;;4.60;99.90;;;;;;5022382;28;20533;-88
2022/11/21 09:11:57;;;;;;;0.60;0.40;;;4.60;99.90;;;;;;4999110;28;20760;-86
2022/11/21 09:19:58;;;;;;;0.40;0.30;;;4.50;99.90;;;;;;4985889;28;20977;-86
2022/11/21 09:22:25;;;;;;;1.27;0.60;;;4.60;99.90;;;;;;4982148;28;20479;-86
2022/11/21 09:24:52;;;;;;;0.80;0.60;;;4.60;99.90;;;;;;4997170;28;20613;-86
2022/11/21 09:27:19;;;;;;;0.50;0.50;;;4.60;99.90;;;;;;5006822;28;20467;-85
2022/11/21 09:29:48;;;;;;;0.80;0.60;;;4.60;99.90;;;;;;5008583;28;20636;-86
2022/11/21 09:32:15;;;;;;;0.67;0.50;;;4.60;99.90;;;;;;4996683;28;20435;-86
2022/11/21 09:34:42;;;;;;;0.77;0.50;;;4.60;99.90;;;;;;4988179;28;20489;-84
2022/11/21 09:37:09;;;;;;;0.50;0.40;;;4.70;99.90;;;;;;4992982;28;20455;-85
2022/11/21 09:39:36;;;;;;;0.60;0.50;;;4.70;99.90;;;;;;4991503;28;20478;-86
2022/11/21 09:42:19;;;;;;;1.27;0.57;;;4.80;99.90;;;;;;4998760;28;20490;-86
2022/11/21 09:44:59;;;;;;;0.60;0.50;;;4.80;99.90;;;;;;4995322;28;20467;-85
2022/11/21 09:47:28;;;;;;;1.80;1.33;;;5.00;99.90;;;;;;4998599;28;20435;-86
2022/11/21 09:50:00;;;;;;;0.97;0.50;;;5.10;99.90;;;;;;4982281;28;20509;-87
2022/11/21 09:52:36;;;;;;;0.93;0.50;;;5.20;99.90;;;;;;4990611;28;21150;-86
2022/11/21 09:55:07;;;;;;;1.53;1.00;;;5.30;99.90;;;;;;4992221;28;20537;-85
2022/11/21 09:57:36;;;;;;;1.63;0.63;;;5.50;99.90;;;;;;4987196;28;20809;-86
2022/11/21 10:00:23;;;;;;;0.73;0.70;;;5.50;99.90;;;;;;4992991;28;20455;-86
2022/11/21 10:02:51;;;;;;;0.63;0.60;;;5.60;99.90;;;;;;4988221;28;20509;-86
2022/11/21 10:05:33;;;;;;;1.90;0.60;;;5.70;99.90;;;;;;4999665;28;20475;-86
2022/11/21 10:08:05;;;;;;;1.37;0.60;;;5.70;99.90;;;;;;4993179;28;20463;-86
2022/11/21 10:10:45;;;;;;;0.50;0.40;;;5.60;99.90;;;;;;4988152;28;20472;-87
2022/11/21 10:13:24;;;;;;;0.70;0.57;;;5.70;99.90;;;;;;4986087;28;20524;-86
2022/11/21 10:16:00;;;;;;;0.67;0.47;;;5.80;99.90;;;;;;4998085;28;21015;-87
2022/11/21 10:18:54;;;;;;;1.20;0.80;;;5.90;99.90;;;;;;4989910;28;20486;-86
2022/11/21 10:21:38;;;;;;;1.63;0.60;;;6.00;99.90;;;;;;4999358;28;20891;-88
2022/11/21 10:24:21;;;;;;;0.70;0.40;;;6.10;99.90;;;;;;4980238;28;20975;-87
2022/11/21 10:26:53;;;;;;;1.73;0.60;;;6.20;99.90;;;;;;4989622;28;20451;-86
2022/11/21 10:29:26;;;;;;;0.50;0.50;;;6.30;99.90;;;;;;4991197;28;21333;-86
2022/11/21 10:31:58;;;;;;;0.50;0.50;;;6.40;99.90;;;;;;4992856;28;20460;-86
2022/11/21 10:34:31;;;;;;;1.77;0.50;;;6.40;99.90;;;;;;5000400;28;20456;-87
2022/11/21 10:37:02;;;;;;;0.50;0.50;;;6.50;99.90;;;;;;4993428;28;20822;-86
2022/11/21 10:39:41;;;;;;;1.00;0.40;;;6.70;99.90;;;;;;4994925;28;20545;-88
2022/11/21 10:42:16;;;;;;;1.47;1.37;;;6.70;99.90;;;;;;4996627;28;20498;-88
2022/11/21 10:47:36;;;;;;;0.87;0.50;;;6.70;99.90;;;;;;4991270;28;20459;-87
2022/11/21 10:50:14;;;;;;;0.70;0.40;;;6.80;99.90;;;;;;4989123;28;20483;-88
2022/11/21 10:52:48;;;;;;;0.83;0.30;;;6.80;99.90;;;;;;4990601;28;20486;-88
2022/11/21 10:55:15;;;;;;;0.60;0.33;;;6.80;99.90;;;;;;4980210;28;20493;-88
2022/11/21 10:57:47;;;;;;;0.70;0.57;;;6.80;99.90;;;;;;4982774;28;20474;-88
2022/11/21 11:00:23;;;;;;;1.03;0.30;;;6.70;99.90;;;;;;4995406;28;21143;-88
2022/11/21 11:03:06;;;;;;;1.27;0.43;;;6.60;99.90;;;;;;4994531;28;20456;-87
2022/11/21 11:05:35;;;;;;;0.80;0.70;;;6.50;99.90;;;;;;4993511;28;20525;-89
2022/11/21 11:08:08;;;;;;;0.80;0.60;;;6.30;99.90;;;;;;5009065;28;20489;-88
2022/11/21 11:10:36;;;;;;;1.07;0.67;;;6.20;99.90;;;;;;5015313;28;20496;-87
2022/11/21 11:16:02;;;;;;;0.80;0.50;;;6.10;99.90;;;;;;5004521;28;20505;-87
2022/11/21 11:18:32;;;;;;;0.90;0.40;;;6.20;99.90;;;;;;4986031;28;20518;-88
2022/11/21 11:21:16;;;;;;;1.53;0.70;;;6.30;99.90;;;;;;4995267;28;20460;-87
2022/11/21 11:23:44;;;;;;;1.53;0.77;;;6.40;99.90;;;;;;4983826;28;20459;-87
2022/11/21 11:26:27;;;;;;;1.33;0.50;;;6.50;99.90;;;;;;4990605;28;20457;-87
2022/11/21 11:28:58;;;;;;;1.23;0.60;;;6.60;99.90;;;;;;4991417;28;20510;-87
2022/11/21 11:31:25;;;;;;;1.10;0.63;;;6.50;99.90;;;;;;4994433;28;20456;-87
2022/11/21 11:33:57;;;;;;;1.67;0.60;;;6.60;99.90;;;;;;4999111;28;20684;-87
2022/11/21 11:36:38;;;;;;;0.77;0.50;;;6.50;99.90;;;;;;4989784;28;20466;-87
2022/11/21 11:39:18;;;;;;;1.00;0.70;;;6.60;99.90;;;;;;4983147;28;20459;-87
2022/11/21 11:47:48;;;;;;;1.40;0.60;;;6.60;99.90;;;;;;4984101;28;20498;-87
2022/11/21 11:50:20;;;;;;;0.80;0.43;;;6.50;99.90;;;;;;4983122;28;20532;-86
2022/11/21 11:53:01;;;;;;;0.50;0.40;;;6.60;99.90;;;;;;4989070;28;20466;-86
2022/11/21 11:55:36;;;;;;;1.53;0.40;;;6.50;99.90;;;;;;4984775;28;20500;-86
2022/11/21 11:58:08;;;;;;;0.87;0.50;;;6.70;99.90;;;;;;4991245;28;20450;-86
2022/11/21 12:00:42;;;;;;;3.03;0.40;;;6.70;99.90;;;;;;4999560;28;20443;-86
2022/11/21 12:03:15;;;;;;;0.50;0.37;;;6.70;99.90;;;;;;4996191;28;20516;-86
2022/11/21 12:06:04;;;;;;;0.50;0.30;;;6.80;99.90;;;;;;4994228;28;20467;-87
2022/11/21 12:08:43;;;;;;;1.00;1.00;;;6.70;99.90;;;;;;4993378;28;20528;-87
2022/11/21 12:15:47;;;;;;;3.07;0.50;;;6.70;99.90;;;;;;4973810;28;20470;-87
2022/11/21 12:17:06;;;;;;;0.63;0.50;;;6.80;99.90;;;;;;4977969;28;21191;-87
2022/11/21 12:19:35;;;;;;;1.80;0.80;;;6.80;99.90;;;;;;4978929;28;20507;-88
2022/11/21 12:22:05;;;;;;;3.10;0.83;;;6.90;99.90;;;;;;4988493;28;20478;-87
2022/11/21 12:24:33;;;;;;;2.27;0.90;;;6.90;99.90;;;;;;4977953;28;20987;-86
2022/11/21 12:27:11;;;;;;;3.03;0.97;;;6.90;99.90;;;;;;4977064;28;20525;-88
2022/11/21 12:29:52;;;;;;;0.73;0.60;;;6.90;99.90;;;;;;4981241;28;20629;-89
2022/11/21 12:32:34;;;;;;;4.33;1.50;;;6.90;99.90;;;;;;4978863;28;20471;-89
2022/11/21 12:35:20;;;;;;;14.70;9.23;;;6.80;99.90;;;;;;4983071;28;20475;-88
2022/11/21 12:37:58;;;;;;;2.13;1.80;;;6.80;99.90;;;;;;4976023;28;20529;-88
2022/11/21 12:40:43;;;;;;;5.77;2.47;;;6.70;99.90;;;;;;4974899;28;20560;-88
2022/11/21 12:43:21;;;;;;;9.53;2.20;;;6.60;99.90;;;;;;4981278;28;20526;-89
2022/11/21 12:45:55;;;;;;;4.80;1.83;;;6.60;99.90;;;;;;4977747;28;20497;-89
2022/11/21 12:55:05;;;;;;;1.93;1.27;;;6.80;99.90;;;;;;4999969;28;20466;-88
2022/11/21 12:57:43;;;;;;;9.40;3.70;;;6.90;99.90;;;;;;4994164;28;20465;-88
2022/11/21 13:00:16;;;;;;;1.17;1.07;;;7.00;99.90;;;;;;5000254;28;20429;-89
2022/11/21 13:03:01;;;;;;;1.03;0.70;;;7.00;99.90;;;;;;5018539;28;20514;-88
2022/11/21 13:05:31;;;;;;;2.93;0.50;;;7.10;99.90;;;;;;5016572;28;20440;-89
2022/11/21 13:08:03;;;;;;;1.13;0.90;;;7.10;99.90;;;;;;5020441;28;20490;-88
2022/11/21 13:10:32;;;;;;;0.50;0.50;;;7.10;99.90;;;;;;5022319;28;20474;-88
2022/11/21 13:13:07;;;;;;;0.67;0.40;;;7.10;99.90;;;;;;5010423;28;20558;-89
2022/11/21 13:15:40;;;;;;;3.37;1.20;;;7.00;99.90;;;;;;5004325;28;20483;-87
2022/11/21 13:18:19;;;;;;;1.60;0.70;;;7.20;99.90;;;;;;4997758;28;20463;-87
2022/11/21 13:20:48;;;;;;;1.77;0.47;;;7.40;99.90;;;;;;4999775;28;20460;-88
2022/11/21 13:23:37;;;;;;;4.03;1.87;;;7.60;99.90;;;;;;4994587;28;20519;-86
2022/11/21 13:29:09;;;;;;;1.80;0.83;;;7.60;99.90;;;;;;5110896;27;20537;-78
2022/11/21 13:31:37;;;;;;;2.67;1.13;;;7.20;99.90;;;;;;5115106;28;20977;-81
2022/11/21 13:34:04;;;;;;;3.30;1.77;;;7.10;99.90;;;;;;5110337;28;20519;-81
2022/11/21 13:36:42;;;;;;;2.10;0.60;;;7.10;99.90;;;;;;5106714;27;20479;-81
2022/11/21 13:39:28;;;;;;;1.67;1.33;;;7.00;99.90;;;;;;5112679;28;20464;-81
2022/11/21 13:44:55;;;;;;;1.63;0.40;;;7.00;99.90;;;;;;5107085;28;21028;-81
2022/11/21 13:48:01;;;;;;;1.03;0.60;;;7.00;99.90;;;;;;5106642;28;20551;-81
2022/11/21 13:50:46;;;;;;;6.83;3.37;;;6.80;99.90;;;;;;5103019;28;20457;-81